Terminal Aerodrome Forecast
Issued by NWS Newport/Morehead City, NC

Home | Current Version | Previous Version | Graphics & Text | Print | Product List | Glossary On
Versions: 1 2 3 4 5 6 7 8 9 10 11 12
000
FTUS42 KMHX 302300
TAFEWN
TAF
KEWN 302320Z 3100/3124 09003KT P6SM SCT060 BKN100
     FM310900 00000KT 5SM BR SCT040 SCT250
     FM311200 09005KT P6SM SCT040 SCT250=

USA.gov is the U.S. government's official web portal to all federal, state and local government web resources and services.